Terminal Aerodrome Forecast
Issued by NWS

Home | Current Version | Previous Version | Graphics & Text | Print | Product List | Glossary On
Versions: 1 2 3 4 5 6 7 8 9 10 11 12 13 14 15 16 17 18 19 20 21 22 23 24 25 26 27 28 29 30 31 32 33 34
190
FTUS43 KLOT 240311 AAA
TAFMDW
TAF AMD
KMDW 240311Z 2403/2424 04012KT P6SM VCSH OVC007
      TEMPO 2403/2405 5SM -SHRA
     FM240500 06014KT 3SM SHRA BR OVC005
      TEMPO 2405/2408 2SM TSRA BR OVC008CB
     FM241000 04010KT 1 1/2SM -RADZ BR VCSH OVC004
     FM241900 01007KT 3SM BR VCSH OVC007
     FM242200 28009KT P6SM SCT007 BKN015=

USA.gov is the U.S. government's official web portal to all federal, state and local government web resources and services.